createdAt,value
2022-11-16T00:02:01.473Z,115.00
2022-11-16T00:04:30.520Z,104.25
2022-11-16T00:06:59.154Z,116.25
2022-11-16T00:09:29.771Z,124.00
2022-11-16T00:12:01.837Z,121.75
2022-11-16T00:14:33.101Z,116.00
2022-11-16T00:17:03.845Z,117.00
2022-11-16T00:19:32.899Z,110.50
2022-11-16T00:22:01.307Z,113.25
2022-11-16T00:24:30.148Z,108.25
2022-11-16T00:26:59.982Z,120.75
2022-11-16T00:29:29.137Z,125.25
2022-11-16T00:31:58.006Z,123.75
2022-11-16T00:34:26.830Z,111.75
2022-11-16T00:36:55.424Z,123.00
2022-11-16T00:39:24.219Z,128.75
2022-11-16T00:41:53.125Z,126.00
2022-11-16T00:44:23.711Z,123.00
2022-11-16T00:46:52.555Z,115.75
2022-11-16T00:49:21.650Z,104.00
2022-11-16T00:51:50.106Z,117.25
2022-11-16T00:54:19.183Z,111.00
2022-11-16T00:56:47.657Z,113.75
2022-11-16T00:59:16.529Z,92.00
2022-11-16T01:01:46.425Z,84.50
2022-11-16T01:04:15.244Z,86.50
2022-11-16T01:06:44.743Z,78.50
2022-11-16T01:09:13.571Z,84.25
2022-11-16T01:11:59.892Z,74.25
2022-11-16T01:14:28.633Z,77.00
2022-11-16T01:16:58.405Z,84.25
2022-11-16T01:19:27.241Z,73.75
2022-11-16T01:21:55.699Z,68.50
2022-11-16T01:24:24.518Z,72.50
2022-11-16T01:26:56.843Z,62.00
2022-11-16T01:29:27.454Z,68.50
2022-11-16T01:32:00.215Z,71.25
2022-11-16T01:34:29.193Z,98.75
2022-11-16T01:37:04.700Z,90.00
2022-11-16T01:39:36.940Z,85.25
2022-11-16T01:42:05.565Z,107.75
2022-11-16T01:45:03.505Z,89.75
2022-11-16T01:47:34.682Z,83.75
2022-11-16T01:50:11.301Z,100.25
2022-11-16T01:52:47.398Z,93.75
2022-11-16T01:55:17.441Z,95.00
2022-11-16T01:58:00.519Z,85.25
2022-11-16T02:00:30.512Z,91.00
2022-11-16T02:03:14.989Z,89.25
2022-11-16T02:06:06.783Z,96.00
2022-11-16T02:09:13.820Z,94.25
2022-11-16T02:12:09.074Z,102.50
2022-11-16T02:14:54.000Z,92.25
2022-11-16T02:17:37.242Z,97.50
2022-11-16T02:20:51.508Z,90.00
2022-11-16T02:23:47.560Z,93.75
2022-11-16T02:26:36.557Z,100.00
2022-11-16T02:29:20.992Z,90.50
2022-11-16T02:31:59.018Z,86.00
2022-11-16T02:34:33.535Z,90.75
2022-11-16T02:37:06.910Z,86.00
2022-11-16T02:39:41.260Z,16.75
2022-11-16T02:42:16.104Z,86.50
2022-11-16T02:44:51.010Z,85.25
2022-11-16T02:47:24.433Z,80.50
2022-11-16T02:49:58.574Z,87.25
2022-11-16T02:52:29.652Z,85.25
2022-11-16T02:54:58.586Z,85.00
2022-11-16T02:57:39.123Z,85.50
2022-11-16T03:00:20.017Z,86.25
2022-11-16T03:02:56.421Z,84.25
2022-11-16T03:05:33.068Z,90.25
2022-11-16T03:08:17.766Z,92.25
2022-11-16T03:11:09.415Z,86.25
2022-11-16T03:13:39.665Z,89.75
2022-11-16T03:16:16.107Z,89.50
2022-11-16T03:18:48.391Z,89.50
2022-11-16T03:21:25.180Z,88.00
2022-11-16T03:23:53.912Z,84.75
2022-11-16T03:26:29.193Z,83.25
2022-11-16T03:29:02.966Z,84.00
2022-11-16T03:31:40.316Z,81.25
2022-11-16T03:34:16.265Z,82.75
2022-11-16T03:36:48.782Z,77.75
2022-11-16T03:39:22.487Z,68.00
2022-11-16T03:41:52.149Z,60.67
2022-11-16T03:44:21.775Z,55.50
2022-11-16T03:46:51.961Z,59.33
2022-11-16T03:49:22.571Z,44.50
2022-11-16T03:51:53.595Z,49.00
2022-11-16T03:54:22.598Z,44.50
2022-11-16T03:56:51.478Z,45.00
2022-11-16T03:59:20.066Z,36.75
2022-11-16T04:01:48.911Z,37.75
2022-11-16T04:04:36.504Z,43.00
2022-11-16T04:07:23.821Z,42.50
2022-11-16T04:10:09.687Z,40.25
2022-11-16T04:12:56.872Z,41.50
2022-11-16T04:15:42.688Z,43.75
2022-11-16T04:18:29.351Z,33.00
2022-11-16T04:21:16.907Z,37.25
2022-11-16T04:24:04.560Z,37.00
2022-11-16T04:26:51.188Z,35.25
2022-11-16T04:29:20.534Z,35.75
2022-11-16T04:32:06.098Z,34.75
2022-11-16T04:34:53.022Z,32.00
2022-11-16T04:37:41.059Z,30.50
2022-11-16T04:40:11.500Z,27.40
2022-11-16T04:42:38.932Z,33.00
2022-11-16T04:45:26.807Z,29.60
2022-11-16T04:47:55.588Z,22.80
2022-11-16T04:50:29.756Z,26.60
2022-11-16T04:53:01.191Z,26.60
2022-11-16T04:55:31.198Z,25.00
2022-11-16T04:58:00.447Z,30.40
2022-11-16T05:00:29.800Z,30.00
2022-11-16T05:03:01.248Z,34.25
2022-11-16T05:05:31.504Z,32.50
2022-11-16T05:08:03.048Z,40.75
2022-11-16T05:10:33.889Z,35.50
2022-11-16T05:13:02.608Z,31.20
2022-11-16T05:15:31.373Z,34.25
2022-11-16T05:18:01.371Z,31.80
2022-11-16T05:20:48.759Z,33.50
2022-11-16T05:23:37.279Z,26.20
2022-11-16T05:26:11.269Z,28.40
2022-11-16T05:28:40.247Z,29.80
2022-11-16T05:31:11.165Z,25.60
2022-11-16T05:33:39.726Z,24.00
2022-11-16T05:36:09.910Z,22.60
2022-11-16T05:38:39.858Z,31.00
2022-11-16T05:41:08.649Z,26.20
2022-11-16T05:43:37.081Z,34.60
2022-11-16T05:46:15.138Z,20.80
2022-11-16T05:48:43.609Z,17.00
2022-11-16T05:51:12.519Z,15.00
2022-11-16T05:53:42.738Z,18.20
2022-11-16T05:56:14.398Z,18.00
2022-11-16T05:58:44.414Z,18.20
2022-11-16T06:01:13.314Z,18.20
2022-11-16T06:03:41.878Z,19.20
2022-11-16T06:06:10.750Z,17.00
2022-11-16T06:08:39.532Z,19.00
2022-11-16T06:11:13.640Z,22.00
2022-11-16T06:13:42.363Z,20.80
2022-11-16T06:16:11.742Z,19.40
2022-11-16T06:18:44.773Z,21.80
2022-11-16T06:21:17.492Z,20.00
2022-11-16T06:23:46.445Z,21.00
2022-11-16T06:26:16.715Z,16.20
2022-11-16T06:28:45.214Z,13.80
2022-11-16T06:31:14.952Z,13.20
2022-11-16T06:33:44.090Z,18.00
2022-11-16T06:36:21.287Z,19.20
2022-11-16T06:38:51.115Z,20.80
2022-11-16T06:41:22.839Z,21.60
2022-11-16T06:43:52.514Z,22.20
2022-11-16T06:46:25.499Z,20.80
2022-11-16T06:48:54.808Z,23.00
2022-11-16T06:51:23.869Z,21.80
2022-11-16T06:53:52.631Z,20.60
2022-11-16T06:56:24.094Z,24.20
2022-11-16T06:58:58.430Z,24.20
2022-11-16T07:01:29.431Z,21.80
2022-11-16T07:04:04.368Z,26.20
2022-11-16T07:06:34.219Z,29.00
2022-11-16T07:09:02.750Z,25.40
2022-11-16T07:11:37.079Z,23.60
2022-11-16T07:14:05.815Z,21.20
2022-11-16T07:16:36.698Z,25.80
2022-11-16T07:19:06.431Z,24.60
2022-11-16T07:21:38.326Z,23.40
2022-11-16T07:24:10.629Z,24.40
2022-11-16T07:26:40.808Z,22.20
2022-11-16T07:29:17.337Z,24.20
2022-11-16T07:32:06.069Z,22.60
2022-11-16T07:34:59.460Z,24.40
2022-11-16T07:37:29.111Z,27.60
2022-11-16T07:39:57.575Z,19.60
2022-11-16T07:42:28.831Z,27.60
2022-11-16T07:45:30.064Z,24.20
2022-11-16T07:48:02.320Z,22.80
2022-11-16T07:50:49.035Z,22.20
2022-11-16T07:53:19.314Z,21.40
2022-11-16T07:55:53.538Z,23.00
2022-11-16T07:58:24.917Z,24.60
2022-11-16T08:00:55.694Z,21.80
2022-11-16T08:03:25.016Z,21.00
2022-11-16T08:06:00.472Z,23.40
2022-11-16T08:08:30.358Z,24.00
2022-11-16T08:11:02.580Z,18.60
2022-11-16T08:13:34.714Z,24.60
2022-11-16T08:16:07.868Z,21.60
2022-11-16T08:18:37.923Z,22.40
2022-11-16T08:21:08.836Z,25.80
2022-11-16T08:23:38.581Z,21.60
2022-11-16T08:26:09.720Z,25.00
2022-11-16T08:28:41.383Z,24.80
2022-11-16T08:31:12.044Z,30.80
2022-11-16T08:33:42.049Z,30.60
2022-11-16T08:36:17.394Z,26.40
2022-11-16T08:38:48.423Z,30.40
2022-11-16T08:41:17.902Z,29.40
2022-11-16T08:43:50.604Z,30.20
2022-11-16T08:46:22.090Z,29.00
2022-11-16T08:48:59.571Z,30.80
2022-11-16T08:51:28.820Z,30.40
2022-11-16T08:54:05.289Z,27.20
2022-11-16T08:56:35.700Z,30.60
2022-11-16T08:59:06.711Z,37.50
2022-11-16T09:01:35.301Z,33.40
2022-11-16T09:04:04.149Z,29.00
2022-11-16T09:06:32.916Z,31.50
2022-11-16T09:09:01.764Z,33.25
2022-11-16T09:11:30.207Z,32.25
2022-11-16T09:13:59.062Z,32.60
2022-11-16T09:16:29.333Z,34.60
2022-11-16T09:18:58.063Z,33.75
2022-11-16T09:21:29.088Z,32.00
2022-11-16T09:23:58.825Z,27.60
2022-11-16T09:26:27.632Z,34.00
2022-11-16T09:28:58.316Z,30.00
2022-11-16T09:31:29.463Z,30.60
2022-11-16T09:33:59.734Z,30.20
2022-11-16T09:36:28.962Z,32.20
2022-11-16T09:42:17.918Z,32.80
2022-11-16T09:45:04.552Z,33.50
2022-11-16T09:47:49.225Z,34.50
2022-11-16T09:50:27.910Z,36.25
2022-11-16T09:53:01.340Z,35.75
2022-11-16T09:55:37.886Z,34.50
2022-11-16T09:58:12.928Z,32.00
2022-11-16T10:00:45.298Z,33.40
2022-11-16T10:03:16.415Z,32.75
2022-11-16T10:05:52.897Z,33.80
2022-11-16T10:08:28.534Z,32.00
2022-11-16T10:11:10.385Z,31.75
2022-11-16T10:13:50.750Z,27.60
2022-11-16T10:16:27.415Z,29.80
2022-11-16T10:19:01.260Z,27.40
2022-11-16T10:21:43.309Z,29.80
2022-11-16T10:24:47.688Z,26.80
2022-11-16T10:27:35.034Z,28.80
2022-11-16T10:30:10.495Z,24.00
2022-11-16T10:32:45.295Z,23.40
2022-11-16T10:35:19.975Z,20.00
2022-11-16T10:37:51.576Z,18.40
2022-11-16T10:40:23.474Z,23.80
2022-11-16T10:43:01.336Z,19.80
2022-11-16T10:45:39.045Z,18.40
2022-11-16T10:48:16.863Z,14.20
2022-11-16T10:50:48.981Z,14.60
2022-11-16T10:53:27.888Z,14.00
2022-11-16T10:56:12.397Z,12.80
2022-11-16T10:58:54.428Z,13.40
2022-11-16T11:01:31.180Z,12.20
2022-11-16T11:04:14.553Z,11.60
2022-11-16T11:06:44.982Z,15.20
2022-11-16T11:09:32.335Z,14.00
2022-11-16T11:12:31.840Z,13.80
2022-11-16T11:15:07.077Z,13.60
2022-11-16T11:17:37.062Z,9.00
2022-11-16T11:20:08.412Z,13.00
2022-11-16T11:22:45.456Z,13.80
2022-11-16T11:25:22.691Z,11.20
2022-11-16T11:27:51.946Z,8.80
2022-11-16T11:30:21.839Z,14.00
2022-11-16T11:32:52.963Z,16.20
2022-11-16T11:35:28.245Z,15.20
2022-11-16T11:38:07.389Z,13.20
2022-11-16T11:40:36.954Z,12.40
2022-11-16T11:43:07.095Z,10.60
2022-11-16T11:45:46.067Z,15.60
2022-11-16T11:48:31.483Z,15.80
2022-11-16T11:51:04.032Z,28.40
2022-11-16T11:53:45.311Z,16.80
2022-11-16T11:56:15.834Z,18.00
2022-11-16T11:58:45.319Z,10.40
2022-11-16T12:01:58.494Z,11.00
2022-11-16T12:04:58.731Z,8.60
2022-11-16T12:07:43.552Z,13.60
2022-11-16T12:10:27.240Z,9.20
2022-11-16T12:13:11.834Z,7.80
2022-11-16T12:15:54.919Z,6.00
2022-11-16T12:18:39.351Z,7.00
2022-11-16T12:21:14.292Z,6.20
2022-11-16T12:24:07.707Z,4.60
2022-11-16T12:26:52.832Z,5.80
2022-11-16T12:29:27.343Z,8.00
2022-11-16T12:32:22.988Z,8.00
2022-11-16T12:35:09.783Z,9.80
2022-11-16T12:37:46.666Z,8.00
2022-11-16T12:40:31.873Z,12.60
2022-11-16T12:43:12.711Z,8.60
2022-11-16T12:46:11.394Z,8.40
2022-11-16T12:49:12.641Z,8.00
2022-11-16T12:51:54.491Z,9.40
2022-11-16T12:54:38.049Z,10.20
2022-11-16T12:57:16.874Z,7.40
2022-11-16T13:00:08.019Z,5.80
2022-11-16T13:02:55.939Z,5.80
2022-11-16T13:05:26.449Z,6.20
2022-11-16T13:08:00.380Z,8.20
2022-11-16T13:10:32.709Z,9.40
2022-11-16T13:13:34.820Z,6.60
2022-11-16T13:15:57.591Z,7.60
2022-11-16T13:18:28.825Z,9.40
2022-11-16T13:21:02.977Z,10.60
2022-11-16T13:23:42.360Z,9.20
2022-11-16T13:26:21.437Z,6.80
2022-11-16T13:28:58.820Z,10.20
2022-11-16T13:31:35.307Z,14.20
2022-11-16T13:34:08.155Z,13.20
2022-11-16T13:36:45.248Z,18.60
2022-11-16T13:39:21.920Z,17.00
2022-11-16T13:41:52.903Z,18.00
2022-11-16T13:44:30.834Z,17.00
2022-11-16T13:47:05.260Z,22.40
2022-11-16T13:49:37.134Z,20.00
2022-11-16T13:52:22.609Z,22.40
2022-11-16T13:54:55.201Z,23.00
2022-11-16T13:57:27.227Z,20.60
2022-11-16T14:00:10.355Z,20.20
2022-11-16T14:02:42.161Z,13.00
2022-11-16T14:05:17.600Z,12.20
2022-11-16T14:07:49.689Z,12.60
2022-11-16T14:11:10.373Z,20.60
2022-11-16T14:13:40.683Z,17.80
2022-11-16T14:16:44.675Z,21.60
2022-11-16T14:19:51.952Z,24.40
2022-11-16T14:22:38.898Z,29.80
2022-11-16T14:25:18.284Z,25.20
2022-11-16T14:27:57.241Z,21.60
2022-11-16T14:30:30.722Z,29.80
2022-11-16T14:32:59.841Z,28.60
2022-11-16T14:35:33.839Z,40.00
2022-11-16T14:38:07.437Z,29.80
2022-11-16T14:40:46.411Z,31.00
2022-11-16T14:43:20.714Z,31.80
2022-11-16T14:45:50.478Z,54.75
2022-11-16T14:48:22.192Z,35.25
2022-11-16T14:51:02.568Z,32.60
2022-11-16T14:53:34.628Z,33.75
2022-11-16T14:56:08.637Z,28.40
2022-11-16T14:58:38.142Z,28.20
2022-11-16T15:01:09.301Z,43.33
2022-11-16T15:03:43.289Z,33.25
2022-11-16T15:06:12.107Z,32.80
2022-11-16T15:08:46.738Z,32.60
2022-11-16T15:11:23.990Z,30.00
2022-11-16T15:13:52.997Z,33.60
2022-11-16T15:16:21.855Z,30.20
2022-11-16T15:18:58.874Z,28.20
2022-11-16T15:21:27.802Z,30.00
2022-11-16T15:26:46.332Z,26.20
2022-11-16T15:29:18.004Z,33.60
2022-11-16T15:31:47.231Z,30.00
2022-11-16T15:34:19.679Z,30.80
2022-11-16T15:36:49.080Z,16.80
2022-11-16T15:39:22.949Z,26.00
2022-11-16T15:41:53.135Z,28.20
2022-11-16T15:44:24.500Z,26.40
2022-11-16T15:46:56.315Z,28.20
2022-11-16T15:49:30.341Z,23.40
2022-11-16T15:52:00.282Z,24.80
2022-11-16T15:54:52.074Z,28.20
2022-11-16T15:57:21.889Z,27.20
2022-11-16T15:59:54.704Z,27.60
2022-11-16T16:02:27.491Z,27.80
2022-11-16T16:04:56.365Z,24.60
2022-11-16T16:07:41.168Z,24.40
2022-11-16T16:10:24.316Z,25.20
2022-11-16T16:12:54.749Z,17.80
2022-11-16T16:15:26.357Z,23.80
2022-11-16T16:17:55.599Z,22.00
2022-11-16T16:20:26.327Z,24.20
2022-11-16T16:22:55.346Z,24.80
2022-11-16T16:25:31.296Z,27.80
2022-11-16T16:28:00.023Z,24.00
2022-11-16T16:30:31.085Z,24.40
2022-11-16T16:32:59.961Z,26.00
2022-11-16T16:35:28.936Z,25.60
2022-11-16T16:37:59.930Z,24.60
2022-11-16T16:40:30.740Z,24.00
2022-11-16T16:42:59.176Z,23.20
2022-11-16T16:45:37.129Z,29.60
2022-11-16T16:48:06.192Z,29.60
2022-11-16T16:50:35.067Z,26.20
2022-11-16T16:53:03.693Z,31.00
2022-11-16T16:55:37.658Z,33.25
2022-11-16T16:58:07.212Z,30.40
2022-11-16T17:00:36.033Z,28.40
2022-11-16T17:03:04.601Z,27.80
2022-11-16T17:05:34.040Z,24.80
2022-11-16T17:08:03.015Z,24.40
2022-11-16T17:10:33.176Z,24.40
2022-11-16T17:13:03.202Z,22.40
2022-11-16T17:15:32.035Z,23.00
2022-11-16T17:18:00.901Z,20.20
2022-11-16T17:20:29.654Z,22.20
2022-11-16T17:22:58.254Z,21.00
2022-11-16T17:25:27.401Z,21.80
2022-11-16T17:27:57.560Z,20.80
2022-11-16T17:30:26.480Z,3.00
2022-11-16T17:32:55.327Z,25.40
2022-11-16T17:35:24.353Z,19.60
2022-11-16T17:37:53.044Z,22.40
2022-11-16T17:40:22.212Z,25.00
2022-11-16T17:42:50.674Z,23.00
2022-11-16T17:45:20.869Z,24.60
2022-11-16T17:47:49.294Z,26.60
2022-11-16T17:50:18.395Z,22.60
2022-11-16T17:52:46.870Z,22.80
2022-11-16T17:55:16.148Z,14.40
2022-11-16T17:57:44.706Z,22.40
2022-11-16T18:00:14.687Z,23.40
2022-11-16T18:02:45.082Z,18.80
2022-11-16T18:05:13.964Z,25.40
2022-11-16T18:07:42.621Z,22.00
2022-11-16T18:10:16.283Z,19.40
2022-11-16T18:12:47.504Z,20.60
2022-11-16T18:15:31.849Z,18.60
2022-11-16T18:18:01.848Z,21.00
2022-11-16T18:20:31.800Z,22.60
2022-11-16T18:23:00.217Z,17.60
2022-11-16T18:25:29.016Z,29.60
2022-11-16T18:27:57.729Z,20.00
2022-11-16T18:30:26.669Z,18.80
2022-11-16T18:32:55.619Z,18.60
2022-11-16T18:35:25.783Z,15.80
2022-11-16T18:37:54.298Z,13.80
2022-11-16T18:40:23.833Z,17.20
2022-11-16T18:42:53.499Z,16.80
2022-11-16T18:45:23.241Z,15.40
2022-11-16T18:47:51.844Z,15.00
2022-11-16T18:50:26.520Z,17.80
2022-11-16T18:52:57.872Z,20.40
2022-11-16T18:55:26.812Z,21.60
2022-11-16T18:57:55.208Z,11.60
2022-11-16T19:00:24.306Z,12.80
2022-11-16T19:02:53.213Z,11.00
2022-11-16T19:05:22.598Z,13.80
2022-11-16T19:07:51.078Z,12.60
2022-11-16T19:10:21.259Z,14.20
2022-11-16T19:12:49.758Z,13.20
2022-11-16T19:15:18.825Z,12.60
2022-11-16T19:18:06.620Z,13.20
2022-11-16T19:20:36.606Z,15.00
2022-11-16T19:23:05.390Z,11.80
2022-11-16T19:25:35.599Z,14.80
2022-11-16T19:28:05.666Z,14.00
2022-11-16T19:30:34.491Z,13.00
2022-11-16T19:33:04.095Z,13.80
2022-11-16T19:35:32.818Z,12.00
2022-11-16T19:38:01.149Z,12.60
2022-11-16T19:40:29.932Z,12.00
2022-11-16T19:42:59.790Z,19.00
2022-11-16T19:45:28.651Z,14.80
2022-11-16T19:47:57.326Z,15.60
2022-11-16T19:50:26.244Z,13.40
2022-11-16T19:52:54.701Z,16.40
2022-11-16T19:55:23.507Z,12.40
2022-11-16T19:57:51.939Z,14.60
2022-11-16T20:00:22.331Z,14.20
2022-11-16T20:02:50.746Z,12.20
2022-11-16T20:05:20.306Z,15.60
2022-11-16T20:07:50.335Z,16.00
2022-11-16T20:10:19.470Z,15.00
2022-11-16T20:12:49.716Z,15.40
2022-11-16T20:15:18.545Z,16.60
2022-11-16T20:17:48.342Z,15.00
2022-11-16T20:20:17.072Z,20.00
2022-11-16T20:22:45.707Z,15.00
2022-11-16T20:25:15.008Z,17.60
2022-11-16T20:27:43.538Z,17.60
2022-11-16T20:30:13.372Z,17.00
2022-11-16T20:32:41.951Z,17.20
2022-11-16T20:35:17.717Z,16.60
2022-11-16T20:37:47.477Z,14.80
2022-11-16T20:40:16.813Z,19.40
2022-11-16T20:42:45.454Z,49.25
2022-11-16T20:45:14.233Z,23.40
2022-11-16T20:47:42.641Z,15.00
2022-11-16T20:50:12.851Z,17.80
2022-11-16T20:52:44.289Z,23.60
2022-11-16T20:55:14.926Z,20.60
2022-11-16T20:57:43.363Z,15.20
2022-11-16T21:00:13.520Z,16.80
2022-11-16T21:02:41.856Z,13.00
2022-11-16T21:05:12.226Z,13.60
2022-11-16T21:07:44.041Z,13.00
2022-11-16T21:10:21.513Z,18.20
2022-11-16T21:13:07.837Z,17.80
2022-11-16T21:15:36.598Z,18.00
2022-11-16T21:18:05.155Z,22.00
2022-11-16T21:20:35.179Z,26.80
2022-11-16T21:23:03.688Z,24.00
2022-11-16T21:25:33.305Z,20.40
2022-11-16T21:28:01.892Z,25.00
2022-11-16T21:30:30.648Z,24.40
2022-11-16T21:32:59.134Z,23.40
2022-11-16T21:35:27.933Z,25.40
2022-11-16T21:37:57.750Z,21.20
2022-11-16T21:40:26.548Z,23.00
2022-11-16T21:42:55.016Z,27.20
2022-11-16T21:45:23.899Z,21.40
2022-11-16T21:47:52.372Z,24.80
2022-11-16T21:50:36.296Z,27.20
2022-11-16T21:53:06.965Z,25.80
2022-11-16T21:55:36.546Z,27.20
2022-11-16T21:58:05.069Z,29.00
2022-11-16T22:00:33.940Z,30.60
2022-11-16T22:03:02.373Z,31.00
2022-11-16T22:05:48.531Z,30.80
2022-11-16T22:08:18.525Z,32.40
2022-11-16T22:10:51.842Z,29.40
2022-11-16T22:13:20.468Z,30.20
2022-11-16T22:15:49.248Z,32.50
2022-11-16T22:18:17.746Z,32.00
2022-11-16T22:20:48.841Z,32.60
2022-11-16T22:23:23.315Z,32.00
2022-11-16T22:25:53.437Z,31.20
2022-11-16T22:28:22.253Z,31.00
2022-11-16T22:30:52.224Z,30.80
2022-11-16T22:33:21.273Z,30.40
2022-11-16T22:35:50.106Z,31.00
2022-11-16T22:38:20.708Z,30.80
2022-11-16T22:40:51.630Z,31.40
2022-11-16T22:43:20.340Z,30.50
2022-11-16T22:45:49.368Z,28.40
2022-11-16T22:48:18.182Z,31.00
2022-11-16T22:50:47.026Z,31.00
2022-11-16T22:53:15.852Z,31.20
2022-11-16T22:55:46.073Z,31.00
2022-11-16T22:58:14.737Z,33.00
2022-11-16T23:00:43.735Z,31.20
2022-11-16T23:03:12.189Z,36.00
2022-11-16T23:05:41.069Z,36.00
2022-11-16T23:08:09.563Z,33.75
2022-11-16T23:10:58.436Z,37.25
2022-11-16T23:13:45.517Z,32.60
2022-11-16T23:16:14.363Z,37.50
2022-11-16T23:18:42.922Z,34.40
2022-11-16T23:21:29.709Z,36.00
2022-11-16T23:24:20.940Z,37.75
2022-11-16T23:27:07.525Z,35.20
2022-11-16T23:29:38.467Z,33.80
2022-11-16T23:32:08.571Z,34.25
2022-11-16T23:34:36.970Z,35.00
2022-11-16T23:37:07.136Z,34.40
2022-11-16T23:39:35.703Z,35.00
2022-11-16T23:42:22.545Z,0.00
2022-11-16T23:44:52.331Z,35.00
2022-11-16T23:47:21.312Z,34.40
2022-11-16T23:49:49.848Z,37.75
2022-11-16T23:52:19.580Z,35.25
2022-11-16T23:54:48.128Z,34.50
2022-11-16T23:57:16.901Z,35.50
2022-11-16T23:59:45.490Z,34.20
